Time;durP1;ratioP1;P1;durP2;ratioP2;P2;SDS_P1;SDS_P2;PMS_P1;PMS_P2;Temp;Humidity;BMP_temperature;BMP_pressure;BME280_temperature;BME280_humidity;BME280_pressure;Samples;Min_cycle;Max_cycle;Signal;HPM_P1;HPM_P2
2021/07/17 06:30:54;;;;;;;;;28.25;26.50;;;;;17.80;65.02;102254.00;4787823;29;45457;-80
2021/07/17 06:33:20;;;;;;;;;30.00;22.67;;;;;17.82;65.22;102254.00;4789885;29;45279;-80
2021/07/17 06:35:45;;;;;;;;;27.67;25.00;;;;;17.85;64.97;102267.34;4789985;29;47083;-80
2021/07/17 06:38:10;;;;;;;;;25.00;22.33;;;;;17.87;65.06;102268.28;4789854;29;45413;-80
2021/07/17 06:40:36;;;;;;;;;25.67;19.00;;;;;17.90;64.87;102264.72;4790373;29;45489;-80
2021/07/17 06:43:01;;;;;;;;;27.00;23.00;;;;;17.92;65.20;102268.28;4790076;29;45681;-80
2021/07/17 06:45:27;;;;;;;;;31.50;26.00;;;;;17.91;64.79;102264.78;4789995;29;46190;-79
2021/07/17 06:47:52;;;;;;;;;28.00;25.67;;;;;17.93;65.54;102273.66;4789802;29;45358;-80
2021/07/17 06:50:20;;;;;;;;;21.00;20.00;;;;;17.99;65.03;102271.94;4789788;29;45365;-80
2021/07/17 06:52:45;;;;;;;;;26.75;22.50;;;;;18.00;65.41;102279.03;4790130;29;45250;-80
2021/07/17 06:55:12;;;;;;;;;30.33;24.33;;;;;18.03;65.25;102274.63;4788001;29;47247;-80
2021/07/17 06:57:39;;;;;;;;;30.00;26.00;;;;;18.05;65.30;102272.00;4789896;29;45440;-80
2021/07/17 07:00:06;;;;;;;;;25.33;22.00;;;;;18.12;65.46;102276.50;4789792;29;45329;-79
2021/07/17 07:02:32;;;;;;;;;29.67;26.67;;;;;18.16;65.62;102281.00;4789865;29;45483;-80
2021/07/17 07:04:57;;;;;;;;;22.67;22.00;;;;;18.20;65.31;102281.94;4789317;29;46973;-80
2021/07/17 07:07:22;;;;;;;;;27.00;22.00;;;;;18.22;65.40;102284.63;4789402;29;45363;-80
2021/07/17 07:09:48;;;;;;;;;27.67;21.00;;;;;18.23;65.17;102276.63;4789627;29;45364;-80
2021/07/17 07:12:13;;;;;;;;;28.00;24.33;;;;;18.25;65.42;102280.19;4789920;29;45305;-80
2021/07/17 07:14:39;;;;;;;;;34.00;27.00;;;;;18.30;65.30;102276.72;4789618;29;46084;-80
2021/07/17 07:17:04;;;;;;;;;31.00;27.67;;;;;18.34;65.10;102284.72;4792581;29;45312;-80
2021/07/17 07:19:30;;;;;;;;;33.00;29.00;;;;;18.33;64.82;102269.66;4792969;29;45428;-80
2021/07/17 07:21:55;;;;;;;;;29.67;24.00;;;;;18.32;65.18;102270.50;4793047;29;45288;-80
2021/07/17 07:24:21;;;;;;;;;33.25;29.00;;;;;18.39;65.61;102284.78;4792378;29;45282;-79
2021/07/17 07:26:47;;;;;;;;;34.67;28.67;;;;;18.42;65.09;102292.81;4792589;29;45319;-80
2021/07/17 07:29:12;;;;;;;;;33.67;28.33;;;;;18.47;64.52;102290.16;4790949;29;45298;-80
2021/07/17 07:31:37;;;;;;;;;30.33;25.00;;;;;18.48;65.27;102299.97;4792778;29;45173;-81
2021/07/17 07:34:03;;;;;;;;;31.00;27.00;;;;;18.49;65.32;102299.97;4792705;29;46177;-80
2021/07/17 07:36:28;;;;;;;;;33.33;25.33;;;;;18.53;65.15;102306.19;4792423;29;45413;-80
2021/07/17 07:38:54;;;;;;;;;24.67;23.33;;;;;18.56;65.47;102300.03;4792649;29;45400;-79
2021/07/17 07:45:10;;;;;;;;;29.67;25.67;;;;;18.62;64.96;102295.66;4758271;29;45686;-94
2021/07/17 07:47:48;;;;;;;;;34.00;27.33;;;;;18.53;64.77;102284.91;4767273;29;45300;-95
2021/07/17 07:50:15;;;;;;;;;30.75;26.75;;;;;18.61;64.50;102292.97;4774065;29;45238;-94
2021/07/17 07:52:43;;;;;;;;;28.33;27.33;;;;;18.66;64.43;102301.88;4775598;29;44770;-94
2021/07/17 07:55:11;;;;;;;;;25.33;24.33;;;;;18.58;64.85;102288.50;4771512;29;46717;-95
2021/07/17 07:57:37;;;;;;;;;27.67;25.00;;;;;18.63;64.61;102296.53;4748979;29;45496;-93
2021/07/17 08:00:06;;;;;;;;;30.67;26.67;;;;;18.61;64.83;102285.00;4758986;29;45291;-94
2021/07/17 08:02:31;;;;;;;;;30.00;27.33;;;;;18.75;65.01;102295.75;4757298;29;45362;-91
2021/07/17 08:04:57;;;;;;;;;31.33;27.33;;;;;18.73;64.61;102287.75;4756753;29;45382;-91
2021/07/17 08:07:22;;;;;;;;;35.75;31.50;;;;;18.73;65.02;102287.75;4741513;29;45392;-95
2021/07/17 08:10:29;;;;;;;;;33.00;28.00;;;;;18.91;64.95;102317.19;4741283;29;45423;-96
2021/07/17 08:15:41;;;;;;;;;25.00;22.33;;;;;18.92;64.77;102311.88;4774188;29;45436;-95
2021/07/17 08:18:07;;;;;;;;;32.67;26.00;;;;;18.87;64.17;102300.28;4789920;29;45351;-92
2021/07/17 08:20:33;;;;;;;;;35.00;27.33;;;;;18.90;64.98;102289.66;4789795;29;45300;-93
2021/07/17 08:22:59;;;;;;;;;32.67;25.00;;;;;18.98;64.38;102295.03;4775736;29;45468;-90
2021/07/17 08:25:24;;;;;;;;;27.00;22.67;;;;;19.09;64.63;102301.34;4775055;29;48037;-91
2021/07/17 08:28:16;;;;;;;;;25.25;22.25;;;;;19.03;64.71;102279.97;4758644;29;45294;-94
2021/07/17 08:30:42;;;;;;;;;31.67;25.33;;;;;19.14;64.98;102284.50;4788260;29;45366;-93
2021/07/17 08:33:08;;;;;;;;;29.67;25.00;;;;;19.24;64.54;102286.34;4788700;29;45412;-80
2021/07/17 08:35:33;;;;;;;;;27.67;25.33;;;;;19.37;64.31;102302.41;4773718;29;45264;-81
2021/07/17 08:37:59;;;;;;;;;28.33;24.67;;;;;19.42;64.37;102295.31;4773327;29;45323;-80
2021/07/17 08:40:24;;;;;;;;;30.00;25.25;;;;;19.50;64.62;102308.72;4774075;29;45314;-81
2021/07/17 08:42:51;;;;;;;;;25.67;21.67;;;;;19.55;64.11;102299.84;4773667;29;45578;-81
2021/07/17 08:45:17;;;;;;;;;25.33;22.33;;;;;19.58;64.38;102298.97;4787337;29;46792;-80
2021/07/17 08:47:44;;;;;;;;;25.33;22.33;;;;;19.67;63.99;102304.34;4772261;29;45280;-80
2021/07/17 08:50:17;;;;;;;;;25.33;22.33;;;;;19.76;63.78;102302.59;4773669;29;45346;-79
2021/07/17 08:52:43;;;;;;;;;27.33;23.00;;;;;19.77;63.84;102297.28;4787265;29;45554;-80
2021/07/17 08:55:10;;;;;;;;;28.67;26.67;;;;;19.88;63.71;102305.31;4773300;29;45283;-80
2021/07/17 08:57:45;;;;;;;;;28.67;22.00;;;;;19.96;64.04;102301.78;4773518;29;45406;-80
2021/07/17 09:00:15;;;;;;;;;28.33;22.33;;;;;20.09;63.30;102302.75;4773303;29;45353;-80
2021/07/17 09:02:43;;;;;;;;;22.67;20.33;;;;;20.18;63.26;102305.41;4773685;29;45416;-80
2021/07/17 09:05:13;;;;;;;;;29.67;25.00;;;;;20.25;63.25;102307.22;4773030;29;46582;-80
2021/07/17 09:07:39;;;;;;;;;27.00;23.00;;;;;20.32;62.97;102301.91;4773150;29;45397;-80
2021/07/17 09:10:36;;;;;;;;;31.00;24.33;;;;;20.45;63.73;102302.81;4773164;29;45235;-80
2021/07/17 09:13:18;;;;;;;;;31.00;26.67;;;;;20.59;62.86;102300.13;4773149;29;45239;-80
2021/07/17 09:16:05;;;;;;;;;24.33;22.33;;;;;20.71;62.61;102289.44;4772819;29;47089;-80
2021/07/17 09:18:48;;;;;;;;;28.00;24.33;;;;;20.84;62.44;102294.78;4771718;29;45341;-80
2021/07/17 09:21:29;;;;;;;;;27.67;23.67;;;;;20.93;61.51;102289.44;4773134;29;45388;-81
2021/07/17 09:24:03;;;;;;;;;22.00;21.00;;;;;21.02;61.57;102290.34;4773264;29;45451;-80
2021/07/17 09:26:32;;;;;;;;;29.33;24.67;;;;;21.16;61.78;102296.56;4786541;29;47455;-80
2021/07/17 09:29:03;;;;;;;;;29.67;22.00;;;;;21.31;61.49;102291.16;4783955;29;45349;-80
2021/07/17 09:31:31;;;;;;;;;35.67;27.33;;;;;21.43;60.91;102287.59;4790850;29;45255;-81
2021/07/17 09:34:11;;;;;;;;;27.67;23.33;;;;;21.55;61.07;102282.19;4791047;29;45439;-80
2021/07/17 09:36:49;;;;;;;;;25.67;23.33;;;;;21.74;60.82;102282.97;4804494;29;48263;-82
2021/07/17 09:39:16;;;;;;;;;29.00;25.33;;;;;21.92;61.07;102285.59;4790605;29;45449;-81
2021/07/17 09:41:52;;;;;;;;;23.67;23.67;;;;;22.03;60.25;102281.06;4790694;29;45511;-81
2021/07/17 09:44:20;;;;;;;;;28.33;24.67;;;;;22.09;59.11;102278.34;4790965;29;45340;-81
2021/07/17 09:46:46;;;;;;;;;25.67;23.00;;;;;22.13;59.73;102279.22;4790519;29;45223;-81
2021/07/17 09:49:17;;;;;;;;;26.00;21.67;;;;;22.14;59.56;102282.78;4790159;29;45288;-78
2021/07/17 09:51:43;;;;;;;;;29.00;23.33;;;;;22.14;59.48;102282.78;4791124;29;45303;-79
2021/07/17 09:54:09;;;;;;;;;28.33;22.00;;;;;22.15;58.85;102276.50;4790697;29;45388;-80
2021/07/17 09:56:36;;;;;;;;;23.00;22.33;;;;;22.13;59.18;102273.84;4790476;29;46412;-81
2021/07/17 09:59:05;;;;;;;;;26.67;22.00;;;;;22.06;58.75;102273.00;4790448;29;45234;-80
2021/07/17 10:01:32;;;;;;;;;27.00;25.00;;;;;22.07;58.92;102279.25;4790700;29;45318;-80
2021/07/17 10:03:59;;;;;;;;;30.33;22.33;;;;;22.09;58.94;102275.69;4788841;29;45563;-81
2021/07/17 10:06:32;;;;;;;;;23.33;20.33;;;;;22.08;59.07;102273.00;4790160;29;45356;-80
2021/07/17 10:09:00;;;;;;;;;23.67;22.67;;;;;22.08;58.36;102275.69;4790098;29;45371;-80
2021/07/17 10:11:27;;;;;;;;;24.33;22.33;;;;;22.07;59.06;102276.56;4790363;29;45446;-80
2021/07/17 10:13:53;;;;;;;;;25.67;20.00;;;;;22.06;59.07;102275.69;4790380;29;45239;-80
2021/07/17 10:16:26;;;;;;;;;29.33;23.67;;;;;22.01;58.66;102274.84;4790094;29;45309;-80
2021/07/17 10:18:54;;;;;;;;;25.33;20.33;;;;;21.94;58.58;102278.44;4789930;29;45271;-80
2021/07/17 10:21:21;;;;;;;;;26.33;22.67;;;;;21.87;58.18;102288.31;4790319;29;45369;-79
2021/07/17 10:23:46;;;;;;;;;24.33;23.00;;;;;21.79;58.10;102280.28;4790371;29;45915;-79
2021/07/17 10:26:12;;;;;;;;;25.67;23.00;;;;;21.73;58.44;102278.53;4789759;29;46090;-80
2021/07/17 10:28:38;;;;;;;;;30.67;22.00;;;;;21.72;58.98;102281.22;4790084;29;45310;-80
2021/07/17 10:31:05;;;;;;;;;22.33;20.67;;;;;21.70;58.55;102280.34;4790365;29;45346;-80
2021/07/17 10:33:31;;;;;;;;;21.33;20.00;;;;;21.70;58.69;102280.34;4790022;29;45363;-80
2021/07/17 10:36:02;;;;;;;;;24.00;20.67;;;;;21.69;58.87;102282.13;4790293;29;45359;-80
2021/07/17 10:38:29;;;;;;;;;23.33;20.67;;;;;21.69;59.12;102279.44;4789792;29;45447;-80
2021/07/17 10:40:57;;;;;;;;;32.00;24.00;;;;;21.70;59.09;102283.88;4789950;29;45589;-80
2021/07/17 10:43:23;;;;;;;;;26.67;22.00;;;;;21.70;59.03;102278.53;4790213;29;45401;-80
2021/07/17 10:45:50;;;;;;;;;24.00;22.33;;;;;21.69;59.11;102275.84;4788545;29;46021;-80
2021/07/17 10:48:28;;;;;;;;;22.67;20.33;;;;;21.68;58.92;102266.06;4789481;29;45312;-81
2021/07/17 10:51:02;;;;;;;;;24.67;20.33;;;;;21.67;59.01;102274.97;4788994;29;45247;-80
2021/07/17 10:53:44;;;;;;;;;22.33;20.67;;;;;21.66;59.28;102270.53;4789873;29;45283;-80
2021/07/17 10:56:27;;;;;;;;;25.67;20.33;;;;;21.69;59.04;102266.06;4789777;29;46315;-81
2021/07/17 10:58:54;;;;;;;;;27.00;23.00;;;;;21.73;59.08;102265.13;4789664;29;45306;-81
2021/07/17 11:01:19;;;;;;;;;29.67;23.00;;;;;21.77;59.62;102257.97;4788738;29;45258;-81
2021/07/17 11:03:46;;;;;;;;;22.33;19.33;;;;;21.79;59.63;102264.22;4789580;29;45505;-80
2021/07/17 11:06:29;;;;;;;;;24.33;21.00;;;;;21.80;58.62;102260.66;4789596;29;46065;-80
2021/07/17 11:08:57;;;;;;;;;23.33;21.33;;;;;21.82;59.34;102266.88;4789394;29;45391;-80
2021/07/17 11:11:29;;;;;;;;;30.67;22.00;;;;;21.83;59.05;102263.31;4788203;29;45487;-80
2021/07/17 11:13:56;;;;;;;;;27.33;22.67;;;;;21.83;59.08;102260.66;4789930;29;45441;-80
2021/07/17 11:16:59;;;;;;;;;30.67;24.33;;;;;21.83;58.41;102254.38;4789287;29;46010;-80
2021/07/17 11:19:27;;;;;;;;;30.33;25.33;;;;;21.85;59.21;102264.22;4732701;30;45359;-79
2021/07/17 11:21:54;;;;;;;;;24.33;20.33;;;;;21.85;58.96;102255.28;4733448;30;45489;-80
2021/07/17 11:24:23;;;;;;;;;23.33;23.00;;;;;21.85;58.53;102253.50;4734017;30;45370;-80
2021/07/17 11:27:07;;;;;;;;;25.33;23.00;;;;;21.86;58.51;102254.41;4733604;30;45379;-81
2021/07/17 11:29:41;;;;;;;;;25.67;23.33;;;;;21.89;58.58;102258.84;4733450;30;45414;-80
2021/07/17 11:32:09;;;;;;;;;26.33;21.67;;;;;21.91;58.73;102263.31;4733557;30;45457;-80
2021/07/17 11:34:40;;;;;;;;;29.33;25.33;;;;;21.93;58.29;102256.16;4733518;30;45296;-80
2021/07/17 11:37:08;;;;;;;;;25.67;23.00;;;;;21.95;58.62;102265.06;4733389;30;45454;-81
2021/07/17 11:39:36;;;;;;;;;24.00;22.33;;;;;21.95;57.89;102258.81;4733322;30;45387;-81
2021/07/17 11:42:05;;;;;;;;;27.67;26.67;;;;;21.96;58.19;102257.91;4733562;30;45405;-79
2021/07/17 11:44:33;;;;;;;;;23.33;21.33;;;;;21.99;58.32;102255.22;4733588;30;45545;-81
2021/07/17 11:47:04;;;;;;;;;24.67;21.67;;;;;22.02;58.80;102255.19;4733019;30;45327;-80
2021/07/17 11:49:32;;;;;;;;;31.67;26.00;;;;;22.08;58.29;102247.09;4745454;29;45491;-80
2021/07/17 11:52:01;;;;;;;;;24.67;22.00;;;;;22.12;58.64;102249.78;4789072;29;45418;-80
2021/07/17 11:54:34;;;;;;;;;28.33;23.33;;;;;22.18;57.84;102252.41;4789350;29;45371;-81
2021/07/17 11:57:09;;;;;;;;;27.67;26.00;;;;;22.22;58.53;102248.81;4789211;29;45455;-80
2021/07/17 11:59:35;;;;;;;;;28.67;24.00;;;;;22.27;58.03;102249.63;4788949;29;45250;-79
2021/07/17 12:02:14;;;;;;;;;26.33;23.67;;;;;22.33;58.73;102246.94;4790310;29;45350;-80
2021/07/17 12:04:52;;;;;;;;;25.67;21.00;;;;;22.43;58.41;102234.34;4792418;29;45248;-80
2021/07/17 12:07:22;;;;;;;;;27.00;24.33;;;;;22.55;58.25;102243.16;4791758;29;46363;-80
2021/07/17 12:09:53;;;;;;;;;24.00;23.00;;;;;22.61;57.85;102247.59;4791955;29;45396;-81
2021/07/17 12:12:30;;;;;;;;;29.00;23.75;;;;;22.62;58.13;102235.97;4792107;29;45315;-80
2021/07/17 12:15:01;;;;;;;;;25.00;21.67;;;;;22.64;57.47;102237.75;4791942;29;45417;-79
2021/07/17 12:17:28;;;;;;;;;28.33;23.33;;;;;22.64;57.42;102239.53;4791622;29;47284;-80
2021/07/17 12:20:03;;;;;;;;;23.00;20.00;;;;;22.63;57.23;102246.66;4805677;29;45319;-82
2021/07/17 12:22:28;;;;;;;;;28.33;24.67;;;;;22.64;57.94;102237.75;4791738;29;45223;-79
2021/07/17 12:25:21;;;;;;;;;23.33;23.00;;;;;22.71;57.52;102235.03;4792170;29;45481;-80
2021/07/17 12:27:52;;;;;;;;;24.33;23.00;;;;;22.75;58.03;102226.06;4789470;29;46279;-80
2021/07/17 12:30:18;;;;;;;;;27.67;21.67;;;;;22.79;57.74;102231.38;4791505;29;45364;-80
2021/07/17 12:32:43;;;;;;;;;24.33;21.33;;;;;22.81;57.13;102231.34;4789195;29;45485;-82
2021/07/17 12:35:09;;;;;;;;;23.00;21.67;;;;;22.83;57.85;102226.84;4791767;29;45243;-80
2021/07/17 12:37:34;;;;;;;;;26.00;22.67;;;;;22.82;57.54;102217.06;4791669;29;46169;-80
2021/07/17 12:40:08;;;;;;;;;29.67;24.67;;;;;22.84;57.21;102215.25;4791722;29;45204;-81
2021/07/17 12:42:40;;;;;;;;;27.67;26.33;;;;;22.87;57.51;102222.34;4791900;29;45420;-80
2021/07/17 12:45:06;;;;;;;;;26.67;24.33;;;;;22.87;57.07;102212.53;4791741;29;45435;-88
2021/07/17 12:47:31;;;;;;;;;26.33;22.33;;;;;22.90;57.26;102209.81;4805277;29;47552;-81
2021/07/17 12:50:01;;;;;;;;;25.00;22.67;;;;;22.92;57.13;102207.13;4791369;29;45548;-79
2021/07/17 12:52:28;;;;;;;;;26.33;25.00;;;;;22.97;57.06;102199.03;4791361;29;45268;-80
2021/07/17 12:55:07;;;;;;;;;25.00;22.00;;;;;23.01;57.19;102204.31;4791643;29;45319;-80
2021/07/17 12:57:34;;;;;;;;;27.33;25.00;;;;;23.09;57.74;102206.91;4791442;29;46458;-81
2021/07/17 12:59:59;;;;;;;;;26.00;24.00;;;;;23.14;57.44;102202.38;4791228;29;45354;-81
2021/07/17 13:02:28;;;;;;;;;24.33;23.67;;;;;23.20;57.13;102201.44;4791225;29;45227;-79
2021/07/17 13:04:54;;;;;;;;;26.67;24.00;;;;;23.24;57.08;102199.59;4790727;29;45504;-80
2021/07/17 13:07:35;;;;;;;;;29.67;26.33;;;;;23.30;56.97;102198.63;4790914;29;46270;-80
2021/07/17 13:10:03;;;;;;;;;31.00;25.33;;;;;23.32;57.16;102203.06;4791010;29;45266;-80
2021/07/17 13:12:31;;;;;;;;;24.00;24.00;;;;;23.34;56.68;102200.34;4790980;29;45345;-80
2021/07/17 13:14:57;;;;;;;;;33.33;25.33;;;;;23.36;57.17;102193.16;4790685;29;45346;-80
2021/07/17 13:17:23;;;;;;;;;25.67;22.33;;;;;23.39;57.00;102194.94;4790424;29;46642;-81
2021/07/17 13:20:04;;;;;;;;;32.33;28.33;;;;;23.41;56.80;102196.69;4790373;29;45487;-80
2021/07/17 13:22:46;;;;;;;;;26.00;21.33;;;;;23.43;56.81;102197.56;4791185;29;45308;-79
2021/07/17 13:25:18;;;;;;;;;28.00;25.00;;;;;23.43;56.78;102210.06;4791139;29;45184;-80
2021/07/17 13:27:44;;;;;;;;;26.00;22.67;;;;;23.43;56.96;102196.66;4790772;29;45456;-81
2021/07/17 13:30:11;;;;;;;;;29.00;26.00;;;;;23.44;57.35;102199.31;4791110;29;45421;-81
2021/07/17 13:32:39;;;;;;;;;28.00;23.67;;;;;23.44;56.93;102196.63;4790910;29;45273;-80
2021/07/17 13:35:31;;;;;;;;;30.33;25.67;;;;;23.45;56.63;102194.84;4790907;29;45348;-80
2021/07/17 13:38:01;;;;;;;;;26.00;25.67;;;;;23.43;56.40;102196.66;4790423;29;47227;-81
2021/07/17 13:40:29;;;;;;;;;25.00;24.00;;;;;23.42;57.04;102187.72;4789279;29;45438;-80
2021/07/17 13:42:55;;;;;;;;;28.00;25.00;;;;;23.46;56.82;102194.84;4790792;29;45405;-80
2021/07/17 13:45:25;;;;;;;;;29.67;27.00;;;;;23.48;56.96;102193.03;4790822;29;45248;-77
2021/07/17 13:47:54;;;;;;;;;29.33;25.33;;;;;23.48;56.79;102193.03;4790641;29;47171;-81
2021/07/17 13:50:20;;;;;;;;;33.00;28.67;;;;;23.52;57.16;102193.00;4804275;29;45305;-80
2021/07/17 13:52:47;;;;;;;;;24.00;22.33;;;;;23.54;57.50;102196.56;4790670;29;45588;-82
2021/07/17 13:55:25;;;;;;;;;26.33;23.67;;;;;23.53;56.86;102186.72;4790738;29;45489;-81
2021/07/17 13:58:06;;;;;;;;;27.67;23.33;;;;;23.52;56.46;102193.88;4790618;29;47429;-81
2021/07/17 14:00:51;;;;;;;;;29.67;26.67;;;;;23.48;57.11;102184.97;4790801;29;45236;-83
2021/07/17 14:03:20;;;;;;;;;29.00;25.67;;;;;23.46;56.23;102184.13;4790557;29;45358;-80
2021/07/17 14:05:54;;;;;;;;;26.67;26.67;;;;;23.44;56.96;102179.63;4790663;29;45505;-81
2021/07/17 14:08:21;;;;;;;;;27.67;23.67;;;;;23.43;56.46;102173.41;4790403;29;46992;-81
2021/07/17 14:10:47;;;;;;;;;31.00;25.67;;;;;23.44;56.97;102171.59;4790342;29;45356;-82
2021/07/17 14:13:13;;;;;;;;;29.00;24.00;;;;;23.45;56.82;102179.66;4790332;29;45620;-82
2021/07/17 14:15:40;;;;;;;;;24.67;22.67;;;;;23.42;56.70;102168.94;4790754;29;45419;-82
2021/07/17 14:18:05;;;;;;;;;29.33;25.67;;;;;23.46;57.14;102167.13;4804122;29;46348;-81
2021/07/17 14:20:31;;;;;;;;;31.67;24.33;;;;;23.46;57.41;102162.66;4790357;29;45367;-82
2021/07/17 14:22:56;;;;;;;;;27.67;24.00;;;;;23.44;57.72;102155.50;4790519;29;45329;-81
2021/07/17 14:25:22;;;;;;;;;26.33;25.33;;;;;23.44;57.69;102161.75;4789614;29;45218;-81
2021/07/17 14:27:49;;;;;;;;;31.00;27.33;;;;;23.40;57.51;102157.34;4790082;29;45981;-81
2021/07/17 14:30:14;;;;;;;;;30.00;24.33;;;;;23.37;57.03;102160.06;4790120;29;45199;-81
2021/07/17 14:32:40;;;;;;;;;31.00;23.33;;;;;23.34;57.91;102152.06;4790465;29;45187;-81
2021/07/17 14:35:06;;;;;;;;;27.00;24.33;;;;;23.34;57.73;102149.38;4790312;29;45365;-81
2021/07/17 14:37:32;;;;;;;;;29.67;24.67;;;;;23.30;57.49;102147.63;4790355;29;45349;-81
2021/07/17 14:39:57;;;;;;;;;27.67;25.00;;;;;23.27;57.41;102151.25;4790036;29;45275;-81
2021/07/17 14:42:23;;;;;;;;;29.33;26.67;;;;;23.25;57.78;102143.22;4790097;29;45541;-81
2021/07/17 14:44:48;;;;;;;;;31.00;27.00;;;;;23.25;57.84;102137.88;4790377;29;45309;-82
2021/07/17 14:47:14;;;;;;;;;27.33;23.67;;;;;23.22;57.65;102134.34;4789985;29;46310;-82
2021/07/17 14:49:41;;;;;;;;;27.00;25.00;;;;;23.24;57.82;102132.53;4789795;29;45420;-82
2021/07/17 14:52:06;;;;;;;;;29.75;26.75;;;;;23.23;58.17;102128.94;4790268;29;45264;-83
2021/07/17 14:54:32;;;;;;;;;24.00;23.33;;;;;23.24;58.31;102130.75;4803664;29;45480;-83
2021/07/17 14:56:58;;;;;;;;;27.00;23.00;;;;;23.25;58.14;102127.13;4789929;29;45330;-83
2021/07/17 14:59:24;;;;;;;;;27.67;26.33;;;;;23.23;58.06;102134.31;4790137;29;45429;-82
2021/07/17 15:01:50;;;;;;;;;28.33;25.67;;;;;23.24;58.51;102132.53;4789856;29;45342;-83
2021/07/17 15:04:16;;;;;;;;;31.33;28.00;;;;;23.22;58.52;102127.19;4789886;29;45445;-83
2021/07/17 15:06:42;;;;;;;;;26.67;26.33;;;;;23.20;58.49;102123.66;4789537;29;47033;-83
2021/07/17 15:09:07;;;;;;;;;26.33;25.67;;;;;23.18;59.01;102122.75;4789844;29;45336;-82
2021/07/17 15:11:33;;;;;;;;;29.33;27.33;;;;;23.18;59.01;102119.19;4789820;29;45807;-83
2021/07/17 15:13:58;;;;;;;;;31.67;24.33;;;;;23.18;58.62;102120.06;4789877;29;45489;-82
2021/07/17 15:16:23;;;;;;;;;27.33;24.00;;;;;23.18;58.79;102113.84;4789651;29;45830;-83
2021/07/17 15:18:49;;;;;;;;;28.33;26.33;;;;;23.17;59.24;102114.72;4789617;29;45417;-83
2021/07/17 15:21:15;;;;;;;;;28.67;26.33;;;;;23.15;58.68;102109.41;4789561;29;45532;-83
2021/07/17 15:23:41;;;;;;;;;28.33;26.00;;;;;23.11;58.93;102104.97;4790191;29;45222;-83
2021/07/17 15:26:07;;;;;;;;;26.00;25.33;;;;;23.12;59.13;102109.41;4789491;29;45605;-83
2021/07/17 15:28:32;;;;;;;;;27.00;25.00;;;;;23.12;59.01;102109.41;4789454;29;45198;-83
2021/07/17 15:30:59;;;;;;;;;31.33;24.33;;;;;23.11;58.21;102102.31;4789710;29;45353;-83
2021/07/17 15:33:24;;;;;;;;;25.00;23.33;;;;;23.09;58.55;102098.75;4789935;29;45232;-83
2021/07/17 15:35:49;;;;;;;;;24.33;22.33;;;;;23.06;58.54;102097.00;4789173;29;46351;-83
2021/07/17 15:38:15;;;;;;;;;28.67;22.67;;;;;23.08;58.71;102102.31;4792843;29;45379;-83
2021/07/17 15:40:41;;;;;;;;;20.00;20.00;;;;;23.07;59.00;102096.09;4792583;29;45295;-82
2021/07/17 15:43:07;;;;;;;;;30.33;24.67;;;;;23.06;58.88;102094.31;4793075;29;45355;-82
2021/07/17 15:45:33;;;;;;;;;26.00;22.00;;;;;23.04;59.00;102085.41;4791064;29;47605;-83
2021/07/17 15:47:58;;;;;;;;;27.00;22.67;;;;;23.05;58.35;102086.28;4792315;29;45328;-87
2021/07/17 15:50:27;;;;;;;;;21.67;20.67;;;;;23.04;58.59;102079.16;4792318;29;45460;-82
2021/07/17 15:52:53;;;;;;;;;22.33;20.33;;;;;23.00;59.15;102073.84;4792729;29;45185;-84
2021/07/17 15:55:18;;;;;;;;;27.33;22.00;;;;;23.04;58.83;102080.03;4792100;29;45251;-82
2021/07/17 15:57:44;;;;;;;;;22.67;20.00;;;;;23.04;58.78;102074.66;4792206;29;45240;-83
2021/07/17 16:00:12;;;;;;;;;24.67;22.67;;;;;23.06;58.95;102069.28;4792660;29;45484;-82
2021/07/17 16:02:38;;;;;;;;;19.33;17.67;;;;;23.04;58.78;102071.09;4792704;29;45439;-82
2021/07/17 16:05:04;;;;;;;;;21.67;21.67;;;;;23.02;59.08;102072.03;4792182;29;45723;-84
2021/07/17 16:07:30;;;;;;;;;22.33;20.00;;;;;23.04;59.01;102069.31;4792987;29;45266;-83
2021/07/17 16:09:56;;;;;;;;;23.67;21.67;;;;;23.01;58.75;102067.56;4792290;29;45278;-83
2021/07/17 16:12:21;;;;;;;;;19.00;16.33;;;;;23.06;59.63;102066.59;4792558;29;45396;-82
2021/07/17 16:14:46;;;;;;;;;22.00;20.67;;;;;23.02;58.79;102060.41;4792452;29;45998;-83
2021/07/17 16:17:12;;;;;;;;;20.33;18.67;;;;;23.05;59.12;102067.53;4792234;29;45227;-83
2021/07/17 16:19:37;;;;;;;;;22.33;20.67;;;;;23.04;58.54;102065.72;4792254;29;45464;-83
2021/07/17 16:22:03;;;;;;;;;26.33;21.00;;;;;23.02;58.85;102055.03;4790801;29;45235;-83
2021/07/17 16:24:28;;;;;;;;;21.33;19.67;;;;;23.04;59.14;102057.69;4792035;29;45473;-83
2021/07/17 16:26:54;;;;;;;;;21.67;18.33;;;;;23.05;59.20;102048.75;4791094;29;45460;-83
2021/07/17 16:29:23;;;;;;;;;22.33;19.67;;;;;23.04;58.92;102046.97;4791901;29;45364;-83
2021/07/17 16:31:49;;;;;;;;;22.33;20.00;;;;;23.04;59.36;102045.19;4792071;29;45357;-82
2021/07/17 16:34:15;;;;;;;;;21.67;20.67;;;;;23.03;59.25;102035.38;4791695;29;46227;-83
2021/07/17 16:36:41;;;;;;;;;18.00;17.33;;;;;23.06;59.21;102047.81;4791742;29;45462;-83
2021/07/17 16:39:06;;;;;;;;;19.00;18.33;;;;;23.07;58.95;102041.56;4792032;29;45278;-83
2021/07/17 16:41:32;;;;;;;;;21.00;16.67;;;;;23.04;59.09;102036.22;4792156;29;45441;-87
2021/07/17 16:43:57;;;;;;;;;22.33;18.00;;;;;23.04;58.96;102036.22;4791446;29;45515;-85
2021/07/17 16:46:23;;;;;;;;;21.00;17.67;;;;;23.00;59.15;102020.22;4791718;29;45221;-84
2021/07/17 16:48:48;;;;;;;;;19.00;18.33;;;;;23.01;59.23;102027.34;4789218;29;45253;-88
2021/07/17 16:51:14;;;;;;;;;22.67;19.67;;;;;22.97;59.56;102020.25;4790413;29;45368;-86
2021/07/17 16:53:39;;;;;;;;;17.67;16.67;;;;;23.03;59.68;102021.97;4790054;29;45294;-87
2021/07/17 16:56:05;;;;;;;;;18.33;17.33;;;;;23.08;59.87;102025.44;4791638;29;45237;-86
2021/07/17 16:58:30;;;;;;;;;20.00;19.67;;;;;23.08;59.33;102032.59;4792102;29;45573;-86
2021/07/17 17:00:56;;;;;;;;;19.33;18.67;;;;;23.04;59.50;102020.16;4791725;29;45251;-85
2021/07/17 17:03:21;;;;;;;;;24.33;20.67;;;;;23.01;59.57;102013.06;4791387;29;45466;-85
2021/07/17 17:05:47;;;;;;;;;22.33;17.67;;;;;23.04;59.80;102012.09;4791419;29;45438;-87
2021/07/17 17:08:12;;;;;;;;;19.00;17.00;;;;;23.09;59.84;102020.97;4791115;29;45461;-87
2021/07/17 17:10:38;;;;;;;;;21.33;19.33;;;;;23.09;59.73;102018.31;4791703;29;45304;-85
2021/07/17 17:13:04;;;;;;;;;22.00;18.33;;;;;23.02;59.74;102010.34;4789823;29;48431;-86
2021/07/17 17:15:30;;;;;;;;;17.67;17.67;;;;;23.02;59.22;102006.78;4791446;29;45418;-85
2021/07/17 17:17:55;;;;;;;;;19.33;18.33;;;;;23.09;59.42;102012.94;4791193;29;45246;-85
2021/07/17 17:20:21;;;;;;;;;19.00;18.00;;;;;22.97;59.66;101996.09;4791395;29;45363;-84
2021/07/17 17:22:47;;;;;;;;;21.50;18.00;;;;;23.09;59.54;102020.97;4789781;29;46352;-85
2021/07/17 17:25:14;;;;;;;;;17.33;17.33;;;;;23.08;59.41;102022.78;4790855;29;45168;-86
2021/07/17 17:27:40;;;;;;;;;17.00;17.00;;;;;23.03;59.49;102008.56;4790057;29;45295;-85
2021/07/17 17:30:06;;;;;;;;;19.33;18.00;;;;;23.08;59.61;102019.19;4790113;29;45578;-84
2021/07/17 17:32:33;;;;;;;;;16.67;15.67;;;;;23.09;59.46;102012.94;4791149;29;45341;-85
2021/07/17 17:34:59;;;;;;;;;21.33;18.67;;;;;23.04;59.04;102009.41;4791058;29;45325;-85
2021/07/17 17:37:24;;;;;;;;;19.00;18.00;;;;;23.09;59.56;102012.94;4791656;29;45374;-86
2021/07/17 17:39:49;;;;;;;;;21.00;17.67;;;;;23.02;59.20;102006.78;4791837;29;45508;-87
2021/07/17 17:42:15;;;;;;;;;21.00;16.00;;;;;22.96;58.97;101997.03;4805211;29;47135;-86
2021/07/17 17:44:41;;;;;;;;;19.33;17.00;;;;;23.08;59.02;102019.19;4791570;29;45248;-86
2021/07/17 17:47:07;;;;;;;;;18.67;17.67;;;;;23.07;59.64;102020.13;4790587;29;45260;-85
2021/07/17 17:49:38;;;;;;;;;22.00;19.00;;;;;23.00;59.93;102004.13;4805294;29;45244;-85
2021/07/17 17:52:10;;;;;;;;;18.67;16.00;;;;;23.09;59.65;102010.25;4789324;29;48508;-86